createdAt,value
2022-10-05T00:00:23.382Z,96.91
2022-10-05T00:06:30.090Z,96.71
2022-10-05T00:12:35.811Z,96.61
2022-10-05T00:18:39.066Z,96.54
2022-10-05T00:24:56.333Z,97.55
2022-10-05T00:31:00.918Z,96.95
2022-10-05T00:37:05.532Z,97.41
2022-10-05T00:43:55.635Z,97.62
2022-10-05T00:50:50.101Z,97.33
2022-10-05T00:57:08.065Z,97.03
2022-10-05T01:03:30.290Z,96.96
2022-10-05T01:09:59.477Z,97.86
2022-10-05T01:16:14.415Z,97.81
2022-10-05T01:22:42.366Z,98.26
2022-10-05T01:29:17.579Z,97.89
2022-10-05T01:36:21.185Z,97.55
2022-10-05T01:43:15.482Z,97.60
2022-10-05T01:49:39.038Z,97.11
2022-10-05T01:56:04.866Z,97.74
2022-10-05T02:02:12.917Z,98.07
2022-10-05T02:08:30.075Z,97.80
2022-10-05T02:14:49.576Z,98.36
2022-10-05T02:20:55.379Z,98.30
2022-10-05T02:26:58.705Z,98.29
2022-10-05T02:33:10.387Z,98.58
2022-10-05T02:39:49.350Z,98.69
2022-10-05T02:46:20.547Z,99.12
2022-10-05T02:52:49.141Z,99.03
2022-10-05T02:59:26.949Z,97.75
2022-10-05T03:05:52.527Z,97.33
2022-10-05T03:12:09.224Z,96.54
2022-10-05T03:18:24.615Z,95.50
2022-10-05T03:25:09.633Z,96.34
2022-10-05T03:31:42.190Z,96.45
2022-10-05T03:38:31.788Z,96.24
2022-10-05T03:44:59.926Z,96.35
2022-10-05T03:51:15.390Z,97.01
2022-10-05T03:57:36.869Z,97.54
2022-10-05T04:03:54.965Z,97.89
2022-10-05T04:10:00.007Z,98.34
2022-10-05T04:16:14.144Z,98.76
2022-10-05T04:22:29.939Z,98.61
2022-10-05T04:28:46.392Z,98.57
2022-10-05T04:35:09.653Z,99.35
2022-10-05T04:42:16.270Z,98.87
2022-10-05T04:48:54.562Z,98.82
2022-10-05T04:55:19.119Z,98.46
2022-10-05T05:02:12.384Z,98.50
2022-10-05T05:08:58.965Z,98.55
2022-10-05T05:15:35.735Z,99.41
2022-10-05T05:22:22.321Z,99.24
2022-10-05T05:28:51.009Z,100.00
2022-10-05T05:35:25.501Z,100.00
2022-10-05T05:41:39.233Z,100.00
2022-10-05T05:47:52.027Z,100.00
2022-10-05T05:54:21.821Z,100.00
2022-10-05T06:01:01.539Z,100.00
2022-10-05T06:07:06.135Z,100.00
2022-10-05T06:13:43.256Z,100.00
2022-10-05T06:19:47.730Z,100.00
2022-10-05T06:26:21.671Z,100.00
2022-10-05T06:33:04.695Z,99.87
2022-10-05T06:39:43.517Z,99.74
2022-10-05T06:46:20.700Z,98.69
2022-10-05T06:52:35.876Z,97.95
2022-10-05T06:59:04.495Z,97.26
2022-10-05T07:05:30.670Z,97.02
2022-10-05T07:12:18.581Z,95.40
2022-10-05T07:18:37.363Z,95.64
2022-10-05T07:25:00.603Z,95.99
2022-10-05T07:31:40.055Z,95.61
2022-10-05T07:37:55.359Z,95.88
2022-10-05T07:44:29.470Z,95.63
2022-10-05T07:51:02.957Z,94.29
2022-10-05T07:57:24.125Z,93.83
2022-10-05T08:04:19.738Z,91.45
2022-10-05T08:10:59.848Z,87.56
2022-10-05T08:17:25.400Z,87.89
2022-10-05T08:23:47.087Z,86.62
2022-10-05T08:30:06.472Z,87.15
2022-10-05T08:36:19.752Z,87.42
2022-10-05T08:42:54.282Z,86.93
2022-10-05T08:49:20.224Z,84.77
2022-10-05T08:56:03.002Z,85.05
2022-10-05T09:02:32.645Z,85.04
2022-10-05T09:08:47.675Z,84.99
2022-10-05T09:15:51.972Z,82.77
2022-10-05T09:22:21.438Z,79.28
2022-10-05T09:28:45.602Z,81.23
2022-10-05T09:35:15.877Z,82.66
2022-10-05T09:41:27.670Z,82.35
2022-10-05T09:48:49.276Z,80.83
2022-10-05T09:55:09.935Z,71.76
2022-10-05T10:01:40.527Z,65.77
2022-10-05T10:08:23.335Z,68.08
2022-10-05T10:15:03.214Z,68.27
2022-10-05T10:21:34.288Z,69.32
2022-10-05T10:28:29.515Z,71.47
2022-10-05T10:35:06.556Z,73.95
2022-10-05T10:41:37.168Z,75.16
2022-10-05T10:48:05.013Z,76.28
2022-10-05T10:54:34.716Z,73.97
2022-10-05T11:01:01.108Z,74.08
2022-10-05T11:07:45.132Z,75.31
2022-10-05T11:14:24.632Z,76.44
2022-10-05T11:21:17.225Z,74.40
2022-10-05T11:27:58.134Z,74.11
2022-10-05T11:34:49.116Z,74.98
2022-10-05T11:41:19.799Z,71.51
2022-10-05T11:47:40.392Z,68.70
2022-10-05T11:54:03.188Z,65.45
2022-10-05T12:00:21.875Z,64.62
2022-10-05T12:06:39.318Z,67.70
2022-10-05T12:13:07.707Z,64.77
2022-10-05T12:19:29.785Z,62.94
2022-10-05T12:25:43.576Z,63.61
2022-10-05T12:32:07.691Z,66.07
2022-10-05T12:38:56.708Z,68.57
2022-10-05T12:45:04.907Z,63.27
2022-10-05T12:51:10.941Z,61.09
2022-10-05T12:57:38.196Z,61.90
2022-10-05T13:04:15.153Z,62.51
2022-10-05T13:10:52.798Z,60.36
2022-10-05T13:17:30.965Z,58.41
2022-10-05T13:23:59.572Z,51.76
2022-10-05T13:30:20.600Z,45.60
2022-10-05T13:37:12.283Z,45.08
2022-10-05T13:43:45.099Z,42.32
2022-10-05T13:50:21.614Z,42.38
2022-10-05T13:56:42.562Z,43.19
2022-10-05T14:02:56.678Z,41.51
2022-10-05T14:09:01.095Z,38.73
2022-10-05T14:15:20.143Z,37.14
2022-10-05T14:28:30.593Z,39.52
2022-10-05T14:34:45.538Z,38.89
2022-10-05T14:41:08.461Z,38.49
2022-10-05T14:47:45.519Z,37.76
2022-10-05T14:54:02.538Z,38.78
2022-10-05T15:00:18.652Z,40.31
2022-10-05T15:07:16.605Z,40.45
2022-10-05T15:13:23.692Z,39.68
2022-10-05T15:20:35.106Z,38.34
2022-10-05T15:27:03.569Z,36.75
2022-10-05T15:33:52.450Z,37.38
2022-10-05T15:46:56.849Z,39.57
2022-10-05T15:53:26.143Z,38.80
2022-10-05T15:59:53.645Z,38.09
2022-10-05T16:06:31.840Z,40.46
2022-10-05T16:13:04.486Z,41.54
2022-10-05T16:19:19.963Z,45.03
2022-10-05T16:25:40.068Z,53.12
2022-10-05T16:32:39.399Z,57.09
2022-10-05T16:39:36.879Z,61.18
2022-10-05T16:45:45.459Z,64.04
2022-10-05T16:51:47.798Z,66.66
2022-10-05T16:57:55.667Z,70.24
2022-10-05T17:04:31.882Z,74.20
2022-10-05T17:11:17.199Z,75.11
2022-10-05T17:17:43.609Z,76.52
2022-10-05T17:24:11.865Z,76.48
2022-10-05T17:30:27.609Z,79.75
2022-10-05T17:36:44.202Z,79.92
2022-10-05T17:42:48.470Z,79.25
2022-10-05T17:48:50.274Z,80.19
2022-10-05T17:55:19.828Z,79.28
2022-10-05T18:07:40.313Z,78.07
2022-10-05T18:13:50.292Z,78.53
2022-10-05T18:20:15.208Z,78.76
2022-10-05T18:26:29.982Z,79.36
2022-10-05T18:32:43.617Z,79.28
2022-10-05T18:39:33.145Z,79.02
2022-10-05T18:46:17.951Z,79.23
2022-10-05T18:52:33.437Z,79.80
2022-10-05T18:59:28.976Z,81.08
2022-10-05T19:05:49.558Z,82.27
2022-10-05T19:12:31.658Z,82.87
2022-10-05T19:19:01.250Z,83.02
2022-10-05T19:25:52.710Z,83.45
2022-10-05T19:32:18.570Z,84.80
2022-10-05T19:38:34.593Z,84.67
2022-10-05T19:45:29.516Z,84.78
2022-10-05T19:51:52.835Z,84.24
2022-10-05T19:58:01.252Z,83.46
2022-10-05T20:04:05.166Z,82.51
2022-10-05T20:10:30.710Z,82.35
2022-10-05T20:16:52.884Z,81.61
2022-10-05T20:23:21.573Z,82.55
2022-10-05T20:29:23.527Z,82.61
2022-10-05T20:35:30.682Z,83.41
2022-10-05T20:41:32.720Z,83.75
2022-10-05T20:47:37.543Z,84.32
2022-10-05T20:53:39.428Z,85.18
2022-10-05T20:59:41.270Z,86.29
2022-10-05T21:05:43.158Z,87.39
2022-10-05T21:11:47.191Z,88.93
2022-10-05T21:17:50.803Z,88.58
2022-10-05T21:23:52.892Z,88.89
2022-10-05T21:29:54.760Z,89.36
2022-10-05T21:35:56.582Z,89.00
2022-10-05T21:41:58.613Z,87.93
2022-10-05T21:48:15.336Z,87.79
2022-10-05T22:07:19.812Z,85.57
2022-10-05T22:13:26.412Z,85.88
2022-10-05T22:19:28.397Z,85.94
2022-10-05T22:25:33.866Z,85.76
2022-10-05T22:31:36.147Z,84.09
2022-10-05T22:37:38.243Z,85.22
2022-10-05T22:43:40.198Z,84.74
2022-10-05T22:49:42.066Z,84.21
2022-10-05T22:55:43.995Z,83.92
2022-10-05T23:01:46.201Z,82.93
2022-10-05T23:07:48.291Z,83.47
2022-10-05T23:13:59.167Z,83.96
2022-10-05T23:20:01.738Z,84.04
2022-10-05T23:26:06.710Z,82.37
2022-10-05T23:32:08.915Z,82.77
2022-10-05T23:38:22.547Z,81.04
2022-10-05T23:44:24.504Z,81.28
2022-10-05T23:50:27.506Z,80.93
2022-10-05T23:56:29.508Z,81.33
